sensor_id;sensor_type;location;lat;lon;timestamp;P1;durP1;ratioP1;P2;durP2;ratioP2
25509;SDS011;13413;52.336;21.200;2023-01-19T00:01:03;83.50;;;50.50;;
25509;SDS011;13413;52.336;21.200;2023-01-19T00:03:58;83.00;;;50.40;;
25509;SDS011;13413;52.336;21.200;2023-01-19T00:06:51;79.20;;;47.70;;
25509;SDS011;13413;52.336;21.200;2023-01-19T00:09:45;78.20;;;48.70;;
25509;SDS011;13413;52.336;21.200;2023-01-19T00:12:39;88.30;;;51.80;;
25509;SDS011;13413;52.336;21.200;2023-01-19T00:15:33;83.20;;;47.10;;
25509;SDS011;13413;52.336;21.200;2023-01-19T00:18:28;78.70;;;49.00;;
25509;SDS011;13413;52.336;21.200;2023-01-19T00:21:22;77.80;;;47.90;;
25509;SDS011;13413;52.336;21.200;2023-01-19T00:24:16;78.70;;;46.70;;
25509;SDS011;13413;52.336;21.200;2023-01-19T00:27:10;85.50;;;47.20;;
25509;SDS011;13413;52.336;21.200;2023-01-19T00:30:05;80.80;;;46.70;;
25509;SDS011;13413;52.336;21.200;2023-01-19T00:33:00;82.20;;;48.70;;
25509;SDS011;13413;52.336;21.200;2023-01-19T00:35:54;75.00;;;45.30;;
25509;SDS011;13413;52.336;21.200;2023-01-19T00:38:48;79.20;;;47.00;;
25509;SDS011;13413;52.336;21.200;2023-01-19T00:41:41;79.30;;;44.50;;
25509;SDS011;13413;52.336;21.200;2023-01-19T00:44:35;78.30;;;45.70;;
25509;SDS011;13413;52.336;21.200;2023-01-19T00:47:30;60.30;;;36.00;;
25509;SDS011;13413;52.336;21.200;2023-01-19T00:50:24;85.00;;;49.90;;
25509;SDS011;13413;52.336;21.200;2023-01-19T00:53:19;80.80;;;46.10;;
25509;SDS011;13413;52.336;21.200;2023-01-19T00:56:13;83.90;;;48.60;;
25509;SDS011;13413;52.336;21.200;2023-01-19T00:59:07;78.40;;;47.30;;
25509;SDS011;13413;52.336;21.200;2023-01-19T01:02:02;73.90;;;43.50;;
25509;SDS011;13413;52.336;21.200;2023-01-19T01:04:56;63.80;;;36.00;;
25509;SDS011;13413;52.336;21.200;2023-01-19T01:07:51;74.30;;;45.60;;
25509;SDS011;13413;52.336;21.200;2023-01-19T01:10:44;73.80;;;44.20;;
25509;SDS011;13413;52.336;21.200;2023-01-19T01:13:38;72.70;;;45.70;;
25509;SDS011;13413;52.336;21.200;2023-01-19T01:16:33;74.20;;;44.40;;
25509;SDS011;13413;52.336;21.200;2023-01-19T01:19:27;71.80;;;44.40;;
25509;SDS011;13413;52.336;21.200;2023-01-19T01:22:21;77.60;;;47.60;;
25509;SDS011;13413;52.336;21.200;2023-01-19T01:25:15;80.90;;;48.40;;
25509;SDS011;13413;52.336;21.200;2023-01-19T01:28:12;76.90;;;47.90;;
25509;SDS011;13413;52.336;21.200;2023-01-19T01:31:06;78.40;;;49.10;;
25509;SDS011;13413;52.336;21.200;2023-01-19T01:42:26;90.90;;;53.40;;
25509;SDS011;13413;52.336;21.200;2023-01-19T01:45:31;76.30;;;46.10;;
25509;SDS011;13413;52.336;21.200;2023-01-19T01:48:26;75.20;;;45.30;;
25509;SDS011;13413;52.336;21.200;2023-01-19T01:51:23;70.30;;;44.30;;
25509;SDS011;13413;52.336;21.200;2023-01-19T01:54:21;71.50;;;44.60;;
25509;SDS011;13413;52.336;21.200;2023-01-19T01:57:18;70.30;;;44.40;;
25509;SDS011;13413;52.336;21.200;2023-01-19T02:00:12;72.20;;;45.60;;
25509;SDS011;13413;52.336;21.200;2023-01-19T02:03:08;76.30;;;44.10;;
25509;SDS011;13413;52.336;21.200;2023-01-19T02:06:02;76.20;;;44.90;;
25509;SDS011;13413;52.336;21.200;2023-01-19T02:09:01;64.90;;;41.90;;
25509;SDS011;13413;52.336;21.200;2023-01-19T02:11:59;78.50;;;46.70;;
25509;SDS011;13413;52.336;21.200;2023-01-19T02:14:53;76.70;;;45.70;;
25509;SDS011;13413;52.336;21.200;2023-01-19T02:17:47;79.00;;;45.20;;
25509;SDS011;13413;52.336;21.200;2023-01-19T02:23:40;79.80;;;48.30;;
25509;SDS011;13413;52.336;21.200;2023-01-19T02:26:38;76.10;;;46.70;;
25509;SDS011;13413;52.336;21.200;2023-01-19T02:29:34;76.00;;;46.30;;
25509;SDS011;13413;52.336;21.200;2023-01-19T02:32:29;78.10;;;46.20;;
25509;SDS011;13413;52.336;21.200;2023-01-19T02:35:23;74.10;;;46.40;;
25509;SDS011;13413;52.336;21.200;2023-01-19T02:38:18;73.50;;;45.40;;
25509;SDS011;13413;52.336;21.200;2023-01-19T02:41:17;68.70;;;42.90;;
25509;SDS011;13413;52.336;21.200;2023-01-19T02:44:16;76.20;;;46.30;;
25509;SDS011;13413;52.336;21.200;2023-01-19T02:47:12;70.80;;;43.70;;
25509;SDS011;13413;52.336;21.200;2023-01-19T02:56:56;72.90;;;44.30;;
25509;SDS011;13413;52.336;21.200;2023-01-19T03:00:08;76.10;;;45.00;;
25509;SDS011;13413;52.336;21.200;2023-01-19T03:03:14;74.50;;;45.60;;
25509;SDS011;13413;52.336;21.200;2023-01-19T03:06:17;76.00;;;44.40;;
25509;SDS011;13413;52.336;21.200;2023-01-19T03:09:24;81.20;;;45.60;;
25509;SDS011;13413;52.336;21.200;2023-01-19T03:12:24;75.50;;;46.00;;
25509;SDS011;13413;52.336;21.200;2023-01-19T03:15:25;77.20;;;46.90;;
25509;SDS011;13413;52.336;21.200;2023-01-19T03:18:26;74.70;;;45.00;;
25509;SDS011;13413;52.336;21.200;2023-01-19T03:21:24;85.10;;;47.80;;
25509;SDS011;13413;52.336;21.200;2023-01-19T03:24:20;80.40;;;48.10;;
25509;SDS011;13413;52.336;21.200;2023-01-19T03:27:18;88.80;;;52.00;;
25509;SDS011;13413;52.336;21.200;2023-01-19T03:30:18;84.30;;;49.20;;
25509;SDS011;13413;52.336;21.200;2023-01-19T03:33:19;94.60;;;53.10;;
25509;SDS011;13413;52.336;21.200;2023-01-19T03:36:18;104.50;;;58.00;;
25509;SDS011;13413;52.336;21.200;2023-01-19T03:39:16;111.00;;;60.30;;
25509;SDS011;13413;52.336;21.200;2023-01-19T03:42:14;104.50;;;58.80;;
25509;SDS011;13413;52.336;21.200;2023-01-19T03:45:10;97.70;;;55.50;;
25509;SDS011;13413;52.336;21.200;2023-01-19T03:48:06;95.70;;;56.90;;
25509;SDS011;13413;52.336;21.200;2023-01-19T03:51:03;84.30;;;52.50;;
25509;SDS011;13413;52.336;21.200;2023-01-19T04:04:09;94.20;;;53.00;;
25509;SDS011;13413;52.336;21.200;2023-01-19T04:10:11;93.50;;;51.90;;
25509;SDS011;13413;52.336;21.200;2023-01-19T04:13:05;94.30;;;54.80;;
25509;SDS011;13413;52.336;21.200;2023-01-19T04:15:59;96.10;;;54.00;;
25509;SDS011;13413;52.336;21.200;2023-01-19T04:18:55;96.40;;;51.90;;
25509;SDS011;13413;52.336;21.200;2023-01-19T04:21:48;85.70;;;51.30;;
25509;SDS011;13413;52.336;21.200;2023-01-19T04:24:42;62.50;;;36.30;;
25509;SDS011;13413;52.336;21.200;2023-01-19T04:27:36;87.30;;;48.90;;
25509;SDS011;13413;52.336;21.200;2023-01-19T04:30:30;83.10;;;47.80;;
25509;SDS011;13413;52.336;21.200;2023-01-19T04:33:25;87.40;;;52.00;;
25509;SDS011;13413;52.336;21.200;2023-01-19T04:39:11;80.60;;;46.60;;
25509;SDS011;13413;52.336;21.200;2023-01-19T04:42:06;83.60;;;47.00;;
25509;SDS011;13413;52.336;21.200;2023-01-19T04:44:59;85.00;;;50.20;;
25509;SDS011;13413;52.336;21.200;2023-01-19T04:47:53;82.60;;;48.50;;
25509;SDS011;13413;52.336;21.200;2023-01-19T04:50:49;82.30;;;48.20;;
25509;SDS011;13413;52.336;21.200;2023-01-19T04:53:43;87.00;;;51.10;;
25509;SDS011;13413;52.336;21.200;2023-01-19T04:56:37;90.80;;;52.10;;
25509;SDS011;13413;52.336;21.200;2023-01-19T04:59:31;106.10;;;57.50;;
25509;SDS011;13413;52.336;21.200;2023-01-19T05:02:26;96.40;;;56.90;;
25509;SDS011;13413;52.336;21.200;2023-01-19T05:05:20;93.40;;;53.60;;
25509;SDS011;13413;52.336;21.200;2023-01-19T05:08:14;89.70;;;52.30;;
25509;SDS011;13413;52.336;21.200;2023-01-19T05:11:07;87.30;;;50.30;;
25509;SDS011;13413;52.336;21.200;2023-01-19T05:14:02;86.20;;;49.70;;
25509;SDS011;13413;52.336;21.200;2023-01-19T05:16:55;87.00;;;49.00;;
25509;SDS011;13413;52.336;21.200;2023-01-19T05:19:49;62.70;;;36.50;;
25509;SDS011;13413;52.336;21.200;2023-01-19T05:22:45;84.30;;;47.80;;
25509;SDS011;13413;52.336;21.200;2023-01-19T05:25:42;83.90;;;46.20;;
25509;SDS011;13413;52.336;21.200;2023-01-19T05:28:36;72.00;;;41.20;;
25509;SDS011;13413;52.336;21.200;2023-01-19T05:31:31;73.30;;;42.20;;
25509;SDS011;13413;52.336;21.200;2023-01-19T05:34:24;76.90;;;43.80;;
25509;SDS011;13413;52.336;21.200;2023-01-19T05:37:22;69.70;;;41.90;;
25509;SDS011;13413;52.336;21.200;2023-01-19T05:40:17;68.50;;;40.30;;
25509;SDS011;13413;52.336;21.200;2023-01-19T05:43:24;71.00;;;42.20;;
25509;SDS011;13413;52.336;21.200;2023-01-19T05:46:18;76.70;;;43.00;;
25509;SDS011;13413;52.336;21.200;2023-01-19T05:49:14;73.80;;;43.20;;
25509;SDS011;13413;52.336;21.200;2023-01-19T05:52:09;64.40;;;39.80;;
25509;SDS011;13413;52.336;21.200;2023-01-19T05:55:03;65.60;;;38.50;;
25509;SDS011;13413;52.336;21.200;2023-01-19T06:00:49;56.00;;;33.70;;
25509;SDS011;13413;52.336;21.200;2023-01-19T06:03:43;61.10;;;35.80;;
25509;SDS011;13413;52.336;21.200;2023-01-19T06:06:37;65.80;;;36.50;;
25509;SDS011;13413;52.336;21.200;2023-01-19T06:09:31;89.50;;;44.20;;
25509;SDS011;13413;52.336;21.200;2023-01-19T06:23:48;76.60;;;44.90;;
25509;SDS011;13413;52.336;21.200;2023-01-19T06:26:42;69.90;;;40.90;;
25509;SDS011;13413;52.336;21.200;2023-01-19T06:29:36;64.10;;;39.30;;
25509;SDS011;13413;52.336;21.200;2023-01-19T06:32:33;65.40;;;37.90;;
25509;SDS011;13413;52.336;21.200;2023-01-19T06:35:27;68.90;;;42.00;;
25509;SDS011;13413;52.336;21.200;2023-01-19T06:38:33;60.30;;;36.40;;
25509;SDS011;13413;52.336;21.200;2023-01-19T06:41:28;43.70;;;27.60;;
25509;SDS011;13413;52.336;21.200;2023-01-19T06:44:34;65.90;;;39.60;;
25509;SDS011;13413;52.336;21.200;2023-01-19T06:47:29;45.70;;;29.40;;
25509;SDS011;13413;52.336;21.200;2023-01-19T06:50:36;67.10;;;41.50;;
25509;SDS011;13413;52.336;21.200;2023-01-19T06:53:29;70.20;;;42.90;;
25509;SDS011;13413;52.336;21.200;2023-01-19T06:56:36;79.30;;;50.10;;
25509;SDS011;13413;52.336;21.200;2023-01-19T06:59:30;80.60;;;51.70;;
25509;SDS011;13413;52.336;21.200;2023-01-19T07:02:24;70.40;;;44.30;;
25509;SDS011;13413;52.336;21.200;2023-01-19T07:05:19;55.70;;;33.20;;
25509;SDS011;13413;52.336;21.200;2023-01-19T07:08:13;65.00;;;39.50;;
25509;SDS011;13413;52.336;21.200;2023-01-19T07:11:07;77.60;;;45.20;;
25509;SDS011;13413;52.336;21.200;2023-01-19T07:14:03;78.00;;;46.70;;
25509;SDS011;13413;52.336;21.200;2023-01-19T07:16:58;92.70;;;55.30;;
25509;SDS011;13413;52.336;21.200;2023-01-19T07:19:52;115.50;;;66.90;;
25509;SDS011;13413;52.336;21.200;2023-01-19T07:22:46;118.10;;;74.20;;
25509;SDS011;13413;52.336;21.200;2023-01-19T07:25:46;98.10;;;57.90;;
25509;SDS011;13413;52.336;21.200;2023-01-19T07:28:40;97.50;;;54.70;;
25509;SDS011;13413;52.336;21.200;2023-01-19T07:31:33;83.50;;;48.20;;
25509;SDS011;13413;52.336;21.200;2023-01-19T07:34:28;64.40;;;38.10;;
25509;SDS011;13413;52.336;21.200;2023-01-19T07:37:22;109.20;;;63.00;;
25509;SDS011;13413;52.336;21.200;2023-01-19T07:40:16;95.10;;;57.10;;
25509;SDS011;13413;52.336;21.200;2023-01-19T07:43:10;94.60;;;53.00;;
25509;SDS011;13413;52.336;21.200;2023-01-19T07:46:04;83.60;;;48.60;;
25509;SDS011;13413;52.336;21.200;2023-01-19T07:48:58;85.60;;;47.40;;
25509;SDS011;13413;52.336;21.200;2023-01-19T07:51:53;77.70;;;47.20;;
25509;SDS011;13413;52.336;21.200;2023-01-19T07:54:47;85.70;;;49.20;;
25509;SDS011;13413;52.336;21.200;2023-01-19T07:57:40;100.30;;;56.60;;
25509;SDS011;13413;52.336;21.200;2023-01-19T08:00:35;91.20;;;51.60;;
25509;SDS011;13413;52.336;21.200;2023-01-19T08:03:30;90.60;;;52.10;;
25509;SDS011;13413;52.336;21.200;2023-01-19T08:06:25;85.50;;;50.80;;
25509;SDS011;13413;52.336;21.200;2023-01-19T08:09:23;93.50;;;52.10;;
25509;SDS011;13413;52.336;21.200;2023-01-19T08:12:17;92.60;;;53.50;;
25509;SDS011;13413;52.336;21.200;2023-01-19T08:15:11;106.90;;;56.70;;
25509;SDS011;13413;52.336;21.200;2023-01-19T08:18:05;162.10;;;88.50;;
25509;SDS011;13413;52.336;21.200;2023-01-19T08:21:00;151.30;;;81.20;;
25509;SDS011;13413;52.336;21.200;2023-01-19T08:23:54;121.30;;;62.40;;
25509;SDS011;13413;52.336;21.200;2023-01-19T08:29:42;96.00;;;52.40;;
25509;SDS011;13413;52.336;21.200;2023-01-19T08:32:36;73.20;;;39.40;;
25509;SDS011;13413;52.336;21.200;2023-01-19T08:43:50;89.80;;;53.60;;
25509;SDS011;13413;52.336;21.200;2023-01-19T08:46:58;91.40;;;51.40;;
25509;SDS011;13413;52.336;21.200;2023-01-19T08:53:01;83.60;;;51.70;;
25509;SDS011;13413;52.336;21.200;2023-01-19T08:55:56;86.70;;;49.70;;
25509;SDS011;13413;52.336;21.200;2023-01-19T09:01:43;68.60;;;42.00;;
25509;SDS011;13413;52.336;21.200;2023-01-19T09:04:37;80.30;;;49.20;;
25509;SDS011;13413;52.336;21.200;2023-01-19T09:07:31;71.90;;;42.80;;
25509;SDS011;13413;52.336;21.200;2023-01-19T09:10:25;68.00;;;42.90;;
25509;SDS011;13413;52.336;21.200;2023-01-19T09:13:19;52.80;;;32.00;;
25509;SDS011;13413;52.336;21.200;2023-01-19T09:16:13;75.10;;;44.80;;
25509;SDS011;13413;52.336;21.200;2023-01-19T09:19:07;68.50;;;42.30;;
25509;SDS011;13413;52.336;21.200;2023-01-19T09:22:01;65.80;;;41.50;;
25509;SDS011;13413;52.336;21.200;2023-01-19T09:24:55;71.70;;;41.40;;
25509;SDS011;13413;52.336;21.200;2023-01-19T09:27:49;79.30;;;45.90;;
25509;SDS011;13413;52.336;21.200;2023-01-19T09:30:43;72.70;;;43.60;;
25509;SDS011;13413;52.336;21.200;2023-01-19T09:33:37;75.10;;;45.10;;
25509;SDS011;13413;52.336;21.200;2023-01-19T09:36:31;79.50;;;46.20;;
25509;SDS011;13413;52.336;21.200;2023-01-19T09:39:25;71.40;;;41.30;;
25509;SDS011;13413;52.336;21.200;2023-01-19T09:42:20;71.90;;;42.90;;
25509;SDS011;13413;52.336;21.200;2023-01-19T09:45:22;66.20;;;40.80;;
25509;SDS011;13413;52.336;21.200;2023-01-19T09:48:25;68.00;;;39.70;;
25509;SDS011;13413;52.336;21.200;2023-01-19T09:51:24;70.30;;;39.90;;
25509;SDS011;13413;52.336;21.200;2023-01-19T09:54:20;72.40;;;40.60;;
25509;SDS011;13413;52.336;21.200;2023-01-19T09:57:20;76.30;;;44.60;;
25509;SDS011;13413;52.336;21.200;2023-01-19T10:00:16;80.80;;;42.20;;
25509;SDS011;13413;52.336;21.200;2023-01-19T10:03:13;72.30;;;41.80;;
25509;SDS011;13413;52.336;21.200;2023-01-19T10:06:08;79.10;;;43.60;;
25509;SDS011;13413;52.336;21.200;2023-01-19T10:12:07;74.90;;;43.00;;
25509;SDS011;13413;52.336;21.200;2023-01-19T10:18:19;82.40;;;47.40;;
25509;SDS011;13413;52.336;21.200;2023-01-19T10:21:17;75.20;;;43.60;;
25509;SDS011;13413;52.336;21.200;2023-01-19T10:24:15;71.90;;;42.30;;
25509;SDS011;13413;52.336;21.200;2023-01-19T10:27:15;75.00;;;43.20;;
25509;SDS011;13413;52.336;21.200;2023-01-19T10:30:15;73.60;;;41.50;;
25509;SDS011;13413;52.336;21.200;2023-01-19T10:33:13;73.10;;;40.40;;
25509;SDS011;13413;52.336;21.200;2023-01-19T10:36:14;83.80;;;44.60;;
25509;SDS011;13413;52.336;21.200;2023-01-19T10:39:10;68.70;;;40.20;;
25509;SDS011;13413;52.336;21.200;2023-01-19T10:42:09;72.80;;;41.40;;
25509;SDS011;13413;52.336;21.200;2023-01-19T10:45:23;71.80;;;40.60;;
25509;SDS011;13413;52.336;21.200;2023-01-19T10:48:19;76.20;;;42.60;;
25509;SDS011;13413;52.336;21.200;2023-01-19T10:59:47;83.60;;;46.50;;
25509;SDS011;13413;52.336;21.200;2023-01-19T11:02:41;70.60;;;42.20;;
25509;SDS011;13413;52.336;21.200;2023-01-19T11:05:41;76.50;;;43.40;;
25509;SDS011;13413;52.336;21.200;2023-01-19T11:08:35;55.50;;;32.30;;
25509;SDS011;13413;52.336;21.200;2023-01-19T11:11:30;73.50;;;41.90;;
25509;SDS011;13413;52.336;21.200;2023-01-19T11:14:35;76.50;;;44.10;;
25509;SDS011;13413;52.336;21.200;2023-01-19T11:17:30;95.70;;;50.20;;
25509;SDS011;13413;52.336;21.200;2023-01-19T11:20:33;87.40;;;49.30;;
25509;SDS011;13413;52.336;21.200;2023-01-19T11:23:39;76.70;;;44.10;;
25509;SDS011;13413;52.336;21.200;2023-01-19T11:26:41;75.80;;;42.90;;
25509;SDS011;13413;52.336;21.200;2023-01-19T11:29:37;77.50;;;42.40;;
25509;SDS011;13413;52.336;21.200;2023-01-19T11:32:37;76.00;;;41.60;;
25509;SDS011;13413;52.336;21.200;2023-01-19T11:35:32;82.80;;;46.00;;
25509;SDS011;13413;52.336;21.200;2023-01-19T11:38:28;81.00;;;46.10;;
25509;SDS011;13413;52.336;21.200;2023-01-19T11:44:34;69.50;;;40.60;;
25509;SDS011;13413;52.336;21.200;2023-01-19T11:47:34;73.70;;;42.30;;
25509;SDS011;13413;52.336;21.200;2023-01-19T11:50:34;74.40;;;43.90;;
25509;SDS011;13413;52.336;21.200;2023-01-19T11:53:33;68.80;;;39.60;;
25509;SDS011;13413;52.336;21.200;2023-01-19T11:59:20;73.30;;;42.30;;
25509;SDS011;13413;52.336;21.200;2023-01-19T12:02:17;71.50;;;42.30;;
25509;SDS011;13413;52.336;21.200;2023-01-19T12:05:18;70.60;;;42.00;;
25509;SDS011;13413;52.336;21.200;2023-01-19T12:08:14;70.40;;;40.70;;
25509;SDS011;13413;52.336;21.200;2023-01-19T12:11:11;73.60;;;42.00;;
25509;SDS011;13413;52.336;21.200;2023-01-19T12:14:12;81.60;;;45.50;;
25509;SDS011;13413;52.336;21.200;2023-01-19T12:17:13;83.90;;;48.30;;
25509;SDS011;13413;52.336;21.200;2023-01-19T12:20:19;77.90;;;43.10;;
25509;SDS011;13413;52.336;21.200;2023-01-19T12:23:22;79.20;;;44.50;;
25509;SDS011;13413;52.336;21.200;2023-01-19T12:26:29;76.30;;;43.20;;
25509;SDS011;13413;52.336;21.200;2023-01-19T12:29:28;74.40;;;42.80;;
25509;SDS011;13413;52.336;21.200;2023-01-19T12:38:49;72.20;;;40.50;;
25509;SDS011;13413;52.336;21.200;2023-01-19T12:41:44;69.70;;;40.30;;
25509;SDS011;13413;52.336;21.200;2023-01-19T12:44:39;71.60;;;37.80;;
25509;SDS011;13413;52.336;21.200;2023-01-19T12:47:35;63.30;;;35.70;;
25509;SDS011;13413;52.336;21.200;2023-01-19T12:50:31;95.40;;;48.80;;
25509;SDS011;13413;52.336;21.200;2023-01-19T12:53:29;70.90;;;39.50;;
25509;SDS011;13413;52.336;21.200;2023-01-19T12:56:27;63.80;;;37.90;;
25509;SDS011;13413;52.336;21.200;2023-01-19T12:59:24;69.90;;;38.80;;
25509;SDS011;13413;52.336;21.200;2023-01-19T13:02:39;64.30;;;37.00;;
25509;SDS011;13413;52.336;21.200;2023-01-19T13:05:49;56.60;;;34.20;;
25509;SDS011;13413;52.336;21.200;2023-01-19T13:08:58;30.70;;;20.30;;
25509;SDS011;13413;52.336;21.200;2023-01-19T13:18:33;65.40;;;40.50;;
25509;SDS011;13413;52.336;21.200;2023-01-19T13:21:44;74.30;;;45.20;;
25509;SDS011;13413;52.336;21.200;2023-01-19T13:27:59;65.60;;;39.80;;
25509;SDS011;13413;52.336;21.200;2023-01-19T13:30:57;63.40;;;38.70;;
25509;SDS011;13413;52.336;21.200;2023-01-19T13:33:52;64.50;;;38.90;;
25509;SDS011;13413;52.336;21.200;2023-01-19T13:36:49;63.00;;;36.80;;
25509;SDS011;13413;52.336;21.200;2023-01-19T13:39:47;63.90;;;39.30;;
25509;SDS011;13413;52.336;21.200;2023-01-19T13:42:42;66.10;;;39.60;;
25509;SDS011;13413;52.336;21.200;2023-01-19T13:45:49;69.10;;;40.80;;
25509;SDS011;13413;52.336;21.200;2023-01-19T13:48:50;65.10;;;39.80;;
25509;SDS011;13413;52.336;21.200;2023-01-19T13:54:57;71.80;;;43.10;;
25509;SDS011;13413;52.336;21.200;2023-01-19T13:57:51;88.30;;;49.40;;
25509;SDS011;13413;52.336;21.200;2023-01-19T14:00:44;105.10;;;54.40;;
25509;SDS011;13413;52.336;21.200;2023-01-19T14:03:58;92.70;;;52.60;;
25509;SDS011;13413;52.336;21.200;2023-01-19T14:06:51;81.10;;;44.70;;
25509;SDS011;13413;52.336;21.200;2023-01-19T14:09:46;75.50;;;42.30;;
25509;SDS011;13413;52.336;21.200;2023-01-19T14:12:57;78.10;;;46.60;;
25509;SDS011;13413;52.336;21.200;2023-01-19T14:15:51;90.20;;;51.90;;
25509;SDS011;13413;52.336;21.200;2023-01-19T14:21:59;86.00;;;53.90;;
25509;SDS011;13413;52.336;21.200;2023-01-19T14:24:54;96.40;;;54.50;;
25509;SDS011;13413;52.336;21.200;2023-01-19T14:28:31;89.80;;;52.40;;
25509;SDS011;13413;52.336;21.200;2023-01-19T14:31:26;69.70;;;42.90;;
25509;SDS011;13413;52.336;21.200;2023-01-19T14:34:32;71.40;;;42.50;;
25509;SDS011;13413;52.336;21.200;2023-01-19T14:37:28;67.50;;;40.20;;
25509;SDS011;13413;52.336;21.200;2023-01-19T14:40:23;65.00;;;39.70;;
25509;SDS011;13413;52.336;21.200;2023-01-19T14:43:16;61.70;;;39.20;;
25509;SDS011;13413;52.336;21.200;2023-01-19T14:46:14;59.70;;;37.20;;
25509;SDS011;13413;52.336;21.200;2023-01-19T14:49:15;75.00;;;49.80;;
25509;SDS011;13413;52.336;21.200;2023-01-19T14:52:19;61.20;;;39.60;;
25509;SDS011;13413;52.336;21.200;2023-01-19T14:55:18;54.30;;;33.50;;
25509;SDS011;13413;52.336;21.200;2023-01-19T14:58:14;54.60;;;33.60;;
25509;SDS011;13413;52.336;21.200;2023-01-19T15:09:35;51.90;;;33.30;;
25509;SDS011;13413;52.336;21.200;2023-01-19T15:12:29;62.80;;;39.70;;
25509;SDS011;13413;52.336;21.200;2023-01-19T15:15:25;69.40;;;45.40;;
25509;SDS011;13413;52.336;21.200;2023-01-19T15:18:22;69.20;;;43.20;;
25509;SDS011;13413;52.336;21.200;2023-01-19T15:21:18;68.40;;;45.30;;
25509;SDS011;13413;52.336;21.200;2023-01-19T15:24:13;92.60;;;55.20;;
25509;SDS011;13413;52.336;21.200;2023-01-19T15:27:09;78.80;;;49.70;;
25509;SDS011;13413;52.336;21.200;2023-01-19T15:30:04;69.10;;;45.10;;
25509;SDS011;13413;52.336;21.200;2023-01-19T15:33:03;78.70;;;50.90;;
25509;SDS011;13413;52.336;21.200;2023-01-19T15:35:57;75.10;;;46.90;;
25509;SDS011;13413;52.336;21.200;2023-01-19T15:38:51;67.00;;;43.50;;
25509;SDS011;13413;52.336;21.200;2023-01-19T15:41:45;63.30;;;40.70;;
25509;SDS011;13413;52.336;21.200;2023-01-19T15:44:39;66.00;;;41.90;;
25509;SDS011;13413;52.336;21.200;2023-01-19T15:47:33;66.90;;;41.60;;
25509;SDS011;13413;52.336;21.200;2023-01-19T15:50:27;78.00;;;46.20;;
25509;SDS011;13413;52.336;21.200;2023-01-19T15:53:21;67.30;;;41.40;;
25509;SDS011;13413;52.336;21.200;2023-01-19T15:56:15;64.60;;;39.80;;
25509;SDS011;13413;52.336;21.200;2023-01-19T15:59:12;58.90;;;36.80;;
25509;SDS011;13413;52.336;21.200;2023-01-19T16:02:07;43.40;;;29.00;;
25509;SDS011;13413;52.336;21.200;2023-01-19T16:05:03;62.70;;;38.30;;
25509;SDS011;13413;52.336;21.200;2023-01-19T16:07:57;60.40;;;39.60;;
25509;SDS011;13413;52.336;21.200;2023-01-19T16:10:51;44.00;;;29.30;;
25509;SDS011;13413;52.336;21.200;2023-01-19T16:13:45;65.80;;;40.40;;
25509;SDS011;13413;52.336;21.200;2023-01-19T16:16:39;69.60;;;42.70;;
25509;SDS011;13413;52.336;21.200;2023-01-19T16:19:33;63.10;;;40.50;;
25509;SDS011;13413;52.336;21.200;2023-01-19T16:22:27;58.50;;;36.00;;
25509;SDS011;13413;52.336;21.200;2023-01-19T16:25:22;56.50;;;37.90;;
25509;SDS011;13413;52.336;21.200;2023-01-19T16:28:16;58.40;;;38.00;;
25509;SDS011;13413;52.336;21.200;2023-01-19T16:31:10;62.50;;;39.30;;
25509;SDS011;13413;52.336;21.200;2023-01-19T16:34:05;64.50;;;38.90;;
25509;SDS011;13413;52.336;21.200;2023-01-19T16:37:00;73.90;;;42.60;;
25509;SDS011;13413;52.336;21.200;2023-01-19T16:39:54;70.00;;;42.10;;
25509;SDS011;13413;52.336;21.200;2023-01-19T16:42:48;66.80;;;41.50;;
25509;SDS011;13413;52.336;21.200;2023-01-19T16:45:55;58.90;;;38.20;;
25509;SDS011;13413;52.336;21.200;2023-01-19T16:48:51;74.50;;;46.20;;
25509;SDS011;13413;52.336;21.200;2023-01-19T16:51:49;67.70;;;43.50;;
25509;SDS011;13413;52.336;21.200;2023-01-19T16:54:43;58.70;;;37.80;;
25509;SDS011;13413;52.336;21.200;2023-01-19T16:57:37;53.40;;;35.40;;
25509;SDS011;13413;52.336;21.200;2023-01-19T17:00:31;52.60;;;35.00;;
25509;SDS011;13413;52.336;21.200;2023-01-19T17:03:25;69.20;;;43.00;;
25509;SDS011;13413;52.336;21.200;2023-01-19T17:06:19;76.10;;;46.80;;
25509;SDS011;13413;52.336;21.200;2023-01-19T17:09:14;81.20;;;47.40;;
25509;SDS011;13413;52.336;21.200;2023-01-19T17:12:09;78.20;;;44.50;;
25509;SDS011;13413;52.336;21.200;2023-01-19T17:15:04;74.40;;;43.00;;
25509;SDS011;13413;52.336;21.200;2023-01-19T17:24:29;93.60;;;56.50;;
25509;SDS011;13413;52.336;21.200;2023-01-19T17:30:18;69.20;;;39.20;;
25509;SDS011;13413;52.336;21.200;2023-01-19T17:33:11;59.80;;;37.90;;
25509;SDS011;13413;52.336;21.200;2023-01-19T17:36:06;65.70;;;41.40;;
25509;SDS011;13413;52.336;21.200;2023-01-19T17:39:05;68.10;;;43.60;;
25509;SDS011;13413;52.336;21.200;2023-01-19T17:42:01;69.90;;;43.00;;
25509;SDS011;13413;52.336;21.200;2023-01-19T17:44:54;70.90;;;40.30;;
25509;SDS011;13413;52.336;21.200;2023-01-19T17:47:49;60.90;;;35.80;;
25509;SDS011;13413;52.336;21.200;2023-01-19T17:50:43;71.60;;;43.50;;
25509;SDS011;13413;52.336;21.200;2023-01-19T17:53:37;66.90;;;43.00;;
25509;SDS011;13413;52.336;21.200;2023-01-19T17:56:33;64.00;;;41.80;;
25509;SDS011;13413;52.336;21.200;2023-01-19T17:59:27;79.20;;;50.30;;
25509;SDS011;13413;52.336;21.200;2023-01-19T18:02:20;154.50;;;84.70;;
25509;SDS011;13413;52.336;21.200;2023-01-19T18:05:15;114.00;;;65.80;;
25509;SDS011;13413;52.336;21.200;2023-01-19T18:08:10;152.10;;;84.40;;
25509;SDS011;13413;52.336;21.200;2023-01-19T18:11:03;114.30;;;64.80;;
25509;SDS011;13413;52.336;21.200;2023-01-19T18:16:51;80.40;;;46.60;;
25509;SDS011;13413;52.336;21.200;2023-01-19T18:19:46;79.50;;;48.40;;
25509;SDS011;13413;52.336;21.200;2023-01-19T18:22:41;94.50;;;55.80;;
25509;SDS011;13413;52.336;21.200;2023-01-19T18:25:38;76.50;;;45.50;;
25509;SDS011;13413;52.336;21.200;2023-01-19T18:28:32;74.60;;;45.20;;
25509;SDS011;13413;52.336;21.200;2023-01-19T18:31:26;82.90;;;47.30;;
25509;SDS011;13413;52.336;21.200;2023-01-19T18:34:20;87.20;;;52.10;;
25509;SDS011;13413;52.336;21.200;2023-01-19T18:37:15;90.40;;;54.50;;
25509;SDS011;13413;52.336;21.200;2023-01-19T18:40:10;85.50;;;51.60;;
25509;SDS011;13413;52.336;21.200;2023-01-19T18:43:05;83.80;;;53.00;;
25509;SDS011;13413;52.336;21.200;2023-01-19T18:45:59;64.80;;;38.90;;
25509;SDS011;13413;52.336;21.200;2023-01-19T18:48:53;89.50;;;55.40;;
25509;SDS011;13413;52.336;21.200;2023-01-19T18:51:47;91.60;;;58.20;;
25509;SDS011;13413;52.336;21.200;2023-01-19T18:54:40;80.60;;;51.10;;
25509;SDS011;13413;52.336;21.200;2023-01-19T18:57:35;84.50;;;51.40;;
25509;SDS011;13413;52.336;21.200;2023-01-19T19:00:29;102.30;;;54.40;;
25509;SDS011;13413;52.336;21.200;2023-01-19T19:03:23;87.20;;;51.60;;
25509;SDS011;13413;52.336;21.200;2023-01-19T19:06:17;81.50;;;49.30;;